KHEY/HEY METAR and TAF weather

Enter ICAO airport designator
Station Type Date Time Source
KHEY METAR 2020/08/11 09:03 UTC NOAA

KHEY 110903Z AUTO 00000KT 5SM BR FEW150 22/21 A3000 RMK AO2 SLP159


Station Type Date Time Source
KHEY Decoded METAR 2020/08/11 09:03 UTC NOAA

Hanchey AHP / Ozark, AL, United States (KHEY) 31-21N 085-40W
Aug 11, 2020 - 05:03 AM EDT / 2020.08.11 0903 UTC
Wind: Calm:0
Visibility: 5 mile(s):0
Sky conditions: mostly clear
Weather: mist
Temperature: 71 F (22 C)
Dew Point: 69 F (21 C)
Relative Humidity: 94%
Pressure (altimeter): 30 in. Hg (1015 hPa)
ob: KHEY 110903Z AUTO 00000KT 5SM BR FEW150 22/21 A3000 RMK AO2 SLP159
cycle: 9

Station Type Date Time Source
KHEY TAF UTC NOAA

Error!

Example: see airport list